sensor_id;sensor_type;location;lat;lon;timestamp;P1;durP1;ratioP1;P2;durP2;ratioP2
58864;SDS011;45702;52.982;6.658;2022-08-19T00:00:15;16.75;;;9.77;;
58864;SDS011;45702;52.982;6.658;2022-08-19T00:02:42;16.88;;;9.85;;
58864;SDS011;45702;52.982;6.658;2022-08-19T00:05:09;18.40;;;10.48;;
58864;SDS011;45702;52.982;6.658;2022-08-19T00:07:36;18.00;;;10.45;;
58864;SDS011;45702;52.982;6.658;2022-08-19T00:10:03;18.52;;;10.23;;
58864;SDS011;45702;52.982;6.658;2022-08-19T00:12:30;18.70;;;10.80;;
58864;SDS011;45702;52.982;6.658;2022-08-19T00:14:56;23.08;;;11.05;;
58864;SDS011;45702;52.982;6.658;2022-08-19T00:17:22;22.02;;;11.15;;
58864;SDS011;45702;52.982;6.658;2022-08-19T00:19:47;18.75;;;11.10;;
58864;SDS011;45702;52.982;6.658;2022-08-19T00:22:13;23.70;;;11.63;;
58864;SDS011;45702;52.982;6.658;2022-08-19T00:24:39;20.17;;;11.57;;
58864;SDS011;45702;52.982;6.658;2022-08-19T00:27:06;20.13;;;10.70;;
58864;SDS011;45702;52.982;6.658;2022-08-19T00:29:32;22.10;;;10.70;;
58864;SDS011;45702;52.982;6.658;2022-08-19T00:31:57;19.95;;;10.60;;
58864;SDS011;45702;52.982;6.658;2022-08-19T00:34:25;18.70;;;11.13;;
58864;SDS011;45702;52.982;6.658;2022-08-19T00:36:53;19.33;;;10.52;;
58864;SDS011;45702;52.982;6.658;2022-08-19T00:39:19;17.67;;;9.25;;
58864;SDS011;45702;52.982;6.658;2022-08-19T00:41:45;13.07;;;6.15;;
58864;SDS011;45702;52.982;6.658;2022-08-19T00:44:16;14.85;;;5.05;;
58864;SDS011;45702;52.982;6.658;2022-08-19T00:46:45;8.88;;;4.40;;
58864;SDS011;45702;52.982;6.658;2022-08-19T00:49:18;7.97;;;4.35;;
58864;SDS011;45702;52.982;6.658;2022-08-19T00:51:58;8.35;;;5.43;;
58864;SDS011;45702;52.982;6.658;2022-08-19T00:54:28;14.63;;;7.80;;
58864;SDS011;45702;52.982;6.658;2022-08-19T00:56:56;13.93;;;6.90;;
58864;SDS011;45702;52.982;6.658;2022-08-19T00:59:23;10.85;;;6.47;;
58864;SDS011;45702;52.982;6.658;2022-08-19T01:01:50;11.25;;;6.45;;
58864;SDS011;45702;52.982;6.658;2022-08-19T01:04:16;13.52;;;7.90;;
58864;SDS011;45702;52.982;6.658;2022-08-19T01:06:41;13.07;;;7.20;;
58864;SDS011;45702;52.982;6.658;2022-08-19T01:09:08;14.85;;;7.55;;
58864;SDS011;45702;52.982;6.658;2022-08-19T01:11:35;15.65;;;7.72;;
58864;SDS011;45702;52.982;6.658;2022-08-19T01:14:04;14.73;;;8.10;;
58864;SDS011;45702;52.982;6.658;2022-08-19T01:16:31;13.05;;;7.65;;
58864;SDS011;45702;52.982;6.658;2022-08-19T01:18:58;11.90;;;6.97;;
58864;SDS011;45702;52.982;6.658;2022-08-19T01:21:28;12.25;;;7.55;;
58864;SDS011;45702;52.982;6.658;2022-08-19T01:23:59;10.85;;;6.97;;
58864;SDS011;45702;52.982;6.658;2022-08-19T01:26:25;14.90;;;7.53;;
58864;SDS011;45702;52.982;6.658;2022-08-19T01:28:53;17.17;;;8.65;;
58864;SDS011;45702;52.982;6.658;2022-08-19T01:31:24;17.92;;;9.02;;
58864;SDS011;45702;52.982;6.658;2022-08-19T01:33:52;14.65;;;8.65;;
58864;SDS011;45702;52.982;6.658;2022-08-19T01:36:27;20.23;;;9.68;;
58864;SDS011;45702;52.982;6.658;2022-08-19T01:39:04;15.18;;;9.10;;
58864;SDS011;45702;52.982;6.658;2022-08-19T01:41:32;16.15;;;9.38;;
58864;SDS011;45702;52.982;6.658;2022-08-19T01:43:59;20.73;;;10.10;;
58864;SDS011;45702;52.982;6.658;2022-08-19T01:46:26;18.00;;;9.10;;
58864;SDS011;45702;52.982;6.658;2022-08-19T01:48:51;16.70;;;9.57;;
58864;SDS011;45702;52.982;6.658;2022-08-19T01:51:17;17.02;;;10.10;;
58864;SDS011;45702;52.982;6.658;2022-08-19T01:53:43;18.30;;;10.38;;
58864;SDS011;45702;52.982;6.658;2022-08-19T01:56:13;18.08;;;9.45;;
58864;SDS011;45702;52.982;6.658;2022-08-19T01:58:40;17.98;;;10.45;;
58864;SDS011;45702;52.982;6.658;2022-08-19T02:01:11;18.85;;;9.88;;
58864;SDS011;45702;52.982;6.658;2022-08-19T02:03:37;20.10;;;10.07;;
58864;SDS011;45702;52.982;6.658;2022-08-19T02:06:03;19.23;;;10.05;;
58864;SDS011;45702;52.982;6.658;2022-08-19T02:08:30;17.67;;;9.25;;
58864;SDS011;45702;52.982;6.658;2022-08-19T02:10:57;16.08;;;9.80;;
58864;SDS011;45702;52.982;6.658;2022-08-19T02:13:24;18.95;;;10.48;;
58864;SDS011;45702;52.982;6.658;2022-08-19T02:15:50;19.33;;;10.73;;
58864;SDS011;45702;52.982;6.658;2022-08-19T02:18:16;19.05;;;10.40;;
58864;SDS011;45702;52.982;6.658;2022-08-19T02:20:43;18.55;;;9.77;;
58864;SDS011;45702;52.982;6.658;2022-08-19T02:23:10;19.40;;;9.75;;
58864;SDS011;45702;52.982;6.658;2022-08-19T02:25:36;19.33;;;9.40;;
58864;SDS011;45702;52.982;6.658;2022-08-19T02:28:03;22.83;;;9.48;;
58864;SDS011;45702;52.982;6.658;2022-08-19T02:30:29;18.33;;;9.82;;
58864;SDS011;45702;52.982;6.658;2022-08-19T02:32:55;18.35;;;9.85;;
58864;SDS011;45702;52.982;6.658;2022-08-19T02:35:21;17.92;;;9.48;;
58864;SDS011;45702;52.982;6.658;2022-08-19T02:37:47;18.42;;;9.48;;
58864;SDS011;45702;52.982;6.658;2022-08-19T02:40:32;18.00;;;9.35;;
58864;SDS011;45702;52.982;6.658;2022-08-19T02:42:59;19.92;;;9.63;;
58864;SDS011;45702;52.982;6.658;2022-08-19T02:45:27;21.93;;;9.63;;
58864;SDS011;45702;52.982;6.658;2022-08-19T02:47:56;19.63;;;9.38;;
58864;SDS011;45702;52.982;6.658;2022-08-19T02:50:22;19.95;;;10.43;;
58864;SDS011;45702;52.982;6.658;2022-08-19T02:52:48;16.80;;;9.90;;
58864;SDS011;45702;52.982;6.658;2022-08-19T02:55:13;20.55;;;10.57;;
58864;SDS011;45702;52.982;6.658;2022-08-19T02:57:40;19.50;;;9.88;;
58864;SDS011;45702;52.982;6.658;2022-08-19T03:00:07;19.83;;;9.93;;
58864;SDS011;45702;52.982;6.658;2022-08-19T03:02:37;19.58;;;10.23;;
58864;SDS011;45702;52.982;6.658;2022-08-19T03:05:03;20.00;;;9.98;;
58864;SDS011;45702;52.982;6.658;2022-08-19T03:07:30;18.33;;;10.00;;
58864;SDS011;45702;52.982;6.658;2022-08-19T03:09:55;23.38;;;10.77;;
58864;SDS011;45702;52.982;6.658;2022-08-19T03:12:21;19.75;;;10.23;;
58864;SDS011;45702;52.982;6.658;2022-08-19T03:14:47;18.70;;;9.65;;
58864;SDS011;45702;52.982;6.658;2022-08-19T03:17:12;17.88;;;10.13;;
58864;SDS011;45702;52.982;6.658;2022-08-19T03:19:38;18.42;;;9.07;;
58864;SDS011;45702;52.982;6.658;2022-08-19T03:22:04;19.60;;;9.32;;
58864;SDS011;45702;52.982;6.658;2022-08-19T03:24:30;20.08;;;9.50;;
58864;SDS011;45702;52.982;6.658;2022-08-19T03:26:56;20.33;;;9.90;;
58864;SDS011;45702;52.982;6.658;2022-08-19T03:29:23;17.00;;;9.35;;
58864;SDS011;45702;52.982;6.658;2022-08-19T03:31:51;20.58;;;10.60;;
58864;SDS011;45702;52.982;6.658;2022-08-19T03:34:24;22.35;;;9.38;;
58864;SDS011;45702;52.982;6.658;2022-08-19T03:36:51;16.55;;;8.93;;
58864;SDS011;45702;52.982;6.658;2022-08-19T03:39:19;17.13;;;8.55;;
58864;SDS011;45702;52.982;6.658;2022-08-19T03:41:46;17.38;;;9.85;;
58864;SDS011;45702;52.982;6.658;2022-08-19T03:46:40;17.08;;;8.73;;
58864;SDS011;45702;52.982;6.658;2022-08-19T03:49:06;16.75;;;8.93;;
58864;SDS011;45702;52.982;6.658;2022-08-19T03:51:36;22.92;;;9.63;;
58864;SDS011;45702;52.982;6.658;2022-08-19T03:54:03;20.50;;;10.15;;
58864;SDS011;45702;52.982;6.658;2022-08-19T03:58:59;21.65;;;10.43;;
58864;SDS011;45702;52.982;6.658;2022-08-19T04:01:26;25.60;;;10.77;;
58864;SDS011;45702;52.982;6.658;2022-08-19T04:03:55;24.05;;;10.73;;
58864;SDS011;45702;52.982;6.658;2022-08-19T04:06:23;22.40;;;10.60;;
58864;SDS011;45702;52.982;6.658;2022-08-19T04:08:52;19.77;;;9.45;;
58864;SDS011;45702;52.982;6.658;2022-08-19T04:11:21;20.58;;;11.00;;
58864;SDS011;45702;52.982;6.658;2022-08-19T04:13:49;21.92;;;10.60;;
58864;SDS011;45702;52.982;6.658;2022-08-19T04:16:17;20.25;;;10.65;;
58864;SDS011;45702;52.982;6.658;2022-08-19T04:18:46;21.05;;;10.43;;
58864;SDS011;45702;52.982;6.658;2022-08-19T04:21:17;25.30;;;11.70;;
58864;SDS011;45702;52.982;6.658;2022-08-19T04:23:45;24.30;;;11.77;;
58864;SDS011;45702;52.982;6.658;2022-08-19T04:26:18;27.73;;;11.82;;
58864;SDS011;45702;52.982;6.658;2022-08-19T04:28:52;21.77;;;11.32;;
58864;SDS011;45702;52.982;6.658;2022-08-19T04:31:21;25.83;;;12.00;;
58864;SDS011;45702;52.982;6.658;2022-08-19T04:33:55;20.90;;;10.95;;
58864;SDS011;45702;52.982;6.658;2022-08-19T04:36:26;27.08;;;11.27;;
58864;SDS011;45702;52.982;6.658;2022-08-19T04:38:55;24.92;;;11.27;;
58864;SDS011;45702;52.982;6.658;2022-08-19T04:41:22;29.48;;;11.80;;
58864;SDS011;45702;52.982;6.658;2022-08-19T04:44:06;23.50;;;10.85;;
58864;SDS011;45702;52.982;6.658;2022-08-19T04:46:32;23.65;;;10.50;;
58864;SDS011;45702;52.982;6.658;2022-08-19T04:48:59;28.30;;;11.68;;
58864;SDS011;45702;52.982;6.658;2022-08-19T04:51:26;24.75;;;10.98;;
58864;SDS011;45702;52.982;6.658;2022-08-19T04:53:52;26.55;;;10.98;;
58864;SDS011;45702;52.982;6.658;2022-08-19T04:56:21;25.13;;;10.05;;
58864;SDS011;45702;52.982;6.658;2022-08-19T04:58:47;23.48;;;11.05;;
58864;SDS011;45702;52.982;6.658;2022-08-19T05:01:20;24.17;;;10.93;;
58864;SDS011;45702;52.982;6.658;2022-08-19T05:03:51;21.00;;;10.77;;
58864;SDS011;45702;52.982;6.658;2022-08-19T05:06:18;24.55;;;10.75;;
58864;SDS011;45702;52.982;6.658;2022-08-19T05:08:46;23.50;;;11.00;;
58864;SDS011;45702;52.982;6.658;2022-08-19T05:11:15;21.40;;;11.30;;
58864;SDS011;45702;52.982;6.658;2022-08-19T05:13:46;28.67;;;12.63;;
58864;SDS011;45702;52.982;6.658;2022-08-19T05:16:14;24.85;;;11.57;;
58864;SDS011;45702;52.982;6.658;2022-08-19T05:18:42;26.40;;;12.48;;
58864;SDS011;45702;52.982;6.658;2022-08-19T05:21:27;31.88;;;14.20;;
58864;SDS011;45702;52.982;6.658;2022-08-19T05:24:12;40.30;;;15.85;;
58864;SDS011;45702;52.982;6.658;2022-08-19T05:26:40;35.60;;;13.73;;
58864;SDS011;45702;52.982;6.658;2022-08-19T05:29:08;44.58;;;18.00;;
58864;SDS011;45702;52.982;6.658;2022-08-19T05:31:35;49.60;;;19.02;;
58864;SDS011;45702;52.982;6.658;2022-08-19T05:34:03;49.80;;;20.25;;
58864;SDS011;45702;52.982;6.658;2022-08-19T05:36:34;48.00;;;19.80;;
58864;SDS011;45702;52.982;6.658;2022-08-19T05:39:04;46.10;;;18.50;;
58864;SDS011;45702;52.982;6.658;2022-08-19T05:41:32;42.33;;;18.02;;
58864;SDS011;45702;52.982;6.658;2022-08-19T05:43:58;40.47;;;17.55;;
58864;SDS011;45702;52.982;6.658;2022-08-19T05:46:27;39.33;;;17.83;;
58864;SDS011;45702;52.982;6.658;2022-08-19T05:48:53;43.28;;;18.05;;
58864;SDS011;45702;52.982;6.658;2022-08-19T05:51:21;49.23;;;19.63;;
58864;SDS011;45702;52.982;6.658;2022-08-19T05:53:49;49.60;;;20.27;;
58864;SDS011;45702;52.982;6.658;2022-08-19T05:56:15;48.33;;;20.10;;
58864;SDS011;45702;52.982;6.658;2022-08-19T05:58:43;43.83;;;19.20;;
58864;SDS011;45702;52.982;6.658;2022-08-19T06:01:11;44.47;;;18.02;;
58864;SDS011;45702;52.982;6.658;2022-08-19T06:03:39;44.10;;;18.38;;
58864;SDS011;45702;52.982;6.658;2022-08-19T06:06:06;44.35;;;18.52;;
58864;SDS011;45702;52.982;6.658;2022-08-19T06:08:34;41.35;;;18.30;;
58864;SDS011;45702;52.982;6.658;2022-08-19T06:13:48;47.92;;;19.15;;
58864;SDS011;45702;52.982;6.658;2022-08-19T06:16:21;43.85;;;19.08;;
58864;SDS011;45702;52.982;6.658;2022-08-19T06:18:51;47.92;;;21.10;;
58864;SDS011;45702;52.982;6.658;2022-08-19T06:21:21;52.75;;;21.52;;
58864;SDS011;45702;52.982;6.658;2022-08-19T06:23:49;52.25;;;21.90;;
58864;SDS011;45702;52.982;6.658;2022-08-19T06:26:17;49.78;;;21.23;;
58864;SDS011;45702;52.982;6.658;2022-08-19T06:28:44;49.42;;;20.27;;
58864;SDS011;45702;52.982;6.658;2022-08-19T06:33:41;48.45;;;21.33;;
58864;SDS011;45702;52.982;6.658;2022-08-19T06:36:17;46.80;;;20.75;;
58864;SDS011;45702;52.982;6.658;2022-08-19T06:38:45;47.67;;;21.05;;
58864;SDS011;45702;52.982;6.658;2022-08-19T06:41:11;45.15;;;21.17;;
58864;SDS011;45702;52.982;6.658;2022-08-19T06:43:37;46.58;;;20.80;;
58864;SDS011;45702;52.982;6.658;2022-08-19T06:46:03;38.70;;;19.38;;
58864;SDS011;45702;52.982;6.658;2022-08-19T06:48:29;44.22;;;19.75;;
58864;SDS011;45702;52.982;6.658;2022-08-19T06:50:55;41.78;;;20.15;;
58864;SDS011;45702;52.982;6.658;2022-08-19T06:53:21;42.55;;;19.67;;
58864;SDS011;45702;52.982;6.658;2022-08-19T06:55:46;40.13;;;20.90;;
58864;SDS011;45702;52.982;6.658;2022-08-19T06:58:12;43.47;;;20.30;;
58864;SDS011;45702;52.982;6.658;2022-08-19T07:00:39;41.67;;;20.50;;
58864;SDS011;45702;52.982;6.658;2022-08-19T07:03:05;44.28;;;21.13;;
58864;SDS011;45702;52.982;6.658;2022-08-19T07:05:30;45.03;;;21.98;;
58864;SDS011;45702;52.982;6.658;2022-08-19T07:07:56;37.95;;;20.15;;
58864;SDS011;45702;52.982;6.658;2022-08-19T07:10:22;41.58;;;20.77;;
58864;SDS011;45702;52.982;6.658;2022-08-19T07:12:48;41.72;;;20.30;;
58864;SDS011;45702;52.982;6.658;2022-08-19T07:15:15;42.38;;;20.15;;
58864;SDS011;45702;52.982;6.658;2022-08-19T07:17:41;36.63;;;19.20;;
58864;SDS011;45702;52.982;6.658;2022-08-19T07:20:09;39.15;;;20.02;;
58864;SDS011;45702;52.982;6.658;2022-08-19T07:22:38;37.13;;;19.33;;
58864;SDS011;45702;52.982;6.658;2022-08-19T07:25:05;35.33;;;18.92;;
58864;SDS011;45702;52.982;6.658;2022-08-19T07:27:31;32.15;;;18.52;;
58864;SDS011;45702;52.982;6.658;2022-08-19T07:29:58;32.58;;;18.92;;
58864;SDS011;45702;52.982;6.658;2022-08-19T07:32:24;35.40;;;18.10;;
58864;SDS011;45702;52.982;6.658;2022-08-19T07:37:19;34.45;;;18.65;;
58864;SDS011;45702;52.982;6.658;2022-08-19T07:39:44;39.05;;;19.33;;
58864;SDS011;45702;52.982;6.658;2022-08-19T07:42:10;34.58;;;19.05;;
58864;SDS011;45702;52.982;6.658;2022-08-19T07:44:36;34.10;;;19.63;;
58864;SDS011;45702;52.982;6.658;2022-08-19T07:47:03;32.60;;;18.17;;
58864;SDS011;45702;52.982;6.658;2022-08-19T07:49:29;32.10;;;18.02;;
58864;SDS011;45702;52.982;6.658;2022-08-19T07:51:57;32.50;;;18.33;;
58864;SDS011;45702;52.982;6.658;2022-08-19T07:54:26;30.05;;;17.10;;
58864;SDS011;45702;52.982;6.658;2022-08-19T07:56:53;30.38;;;17.05;;
58864;SDS011;45702;52.982;6.658;2022-08-19T07:59:19;28.80;;;17.00;;
58864;SDS011;45702;52.982;6.658;2022-08-19T08:01:46;28.63;;;15.80;;
58864;SDS011;45702;52.982;6.658;2022-08-19T08:04:12;27.15;;;15.68;;
58864;SDS011;45702;52.982;6.658;2022-08-19T08:06:57;27.40;;;15.65;;
58864;SDS011;45702;52.982;6.658;2022-08-19T08:09:42;29.13;;;14.75;;
58864;SDS011;45702;52.982;6.658;2022-08-19T08:12:16;28.33;;;15.95;;
58864;SDS011;45702;52.982;6.658;2022-08-19T08:14:49;28.52;;;15.48;;
58864;SDS011;45702;52.982;6.658;2022-08-19T08:17:18;25.30;;;14.88;;
58864;SDS011;45702;52.982;6.658;2022-08-19T08:19:48;26.67;;;14.75;;
58864;SDS011;45702;52.982;6.658;2022-08-19T08:22:16;24.63;;;14.87;;
58864;SDS011;45702;52.982;6.658;2022-08-19T08:25:07;24.50;;;14.85;;
58864;SDS011;45702;52.982;6.658;2022-08-19T08:27:39;27.15;;;16.25;;
58864;SDS011;45702;52.982;6.658;2022-08-19T08:30:11;28.55;;;15.25;;
58864;SDS011;45702;52.982;6.658;2022-08-19T08:32:39;26.45;;;15.23;;
58864;SDS011;45702;52.982;6.658;2022-08-19T08:35:07;24.40;;;14.75;;
58864;SDS011;45702;52.982;6.658;2022-08-19T08:37:36;24.88;;;14.82;;
58864;SDS011;45702;52.982;6.658;2022-08-19T08:43:18;25.27;;;16.35;;
58864;SDS011;45702;52.982;6.658;2022-08-19T08:49:02;23.45;;;14.18;;
58864;SDS011;45702;52.982;6.658;2022-08-19T08:52:10;25.10;;;16.42;;
58864;SDS011;45702;52.982;6.658;2022-08-19T08:54:43;29.80;;;16.88;;
58864;SDS011;45702;52.982;6.658;2022-08-19T08:57:15;27.67;;;16.17;;
58864;SDS011;45702;52.982;6.658;2022-08-19T08:59:48;30.05;;;17.40;;
58864;SDS011;45702;52.982;6.658;2022-08-19T09:02:17;33.85;;;18.30;;
58864;SDS011;45702;52.982;6.658;2022-08-19T09:04:43;29.45;;;17.75;;
58864;SDS011;45702;52.982;6.658;2022-08-19T09:07:16;29.33;;;17.00;;
58864;SDS011;45702;52.982;6.658;2022-08-19T09:09:58;28.85;;;16.02;;
58864;SDS011;45702;52.982;6.658;2022-08-19T09:15:25;29.55;;;18.00;;
58864;SDS011;45702;52.982;6.658;2022-08-19T09:17:59;29.55;;;18.60;;
58864;SDS011;45702;52.982;6.658;2022-08-19T09:20:26;29.52;;;18.27;;
58864;SDS011;45702;52.982;6.658;2022-08-19T09:22:52;29.45;;;17.33;;
58864;SDS011;45702;52.982;6.658;2022-08-19T09:25:19;28.15;;;17.55;;
58864;SDS011;45702;52.982;6.658;2022-08-19T09:27:50;30.60;;;18.38;;
58864;SDS011;45702;52.982;6.658;2022-08-19T09:30:22;32.05;;;18.48;;
58864;SDS011;45702;52.982;6.658;2022-08-19T09:32:49;27.75;;;16.38;;
58864;SDS011;45702;52.982;6.658;2022-08-19T09:37:44;29.77;;;14.23;;
58864;SDS011;45702;52.982;6.658;2022-08-19T09:40:09;25.13;;;14.88;;
58864;SDS011;45702;52.982;6.658;2022-08-19T09:42:36;21.15;;;13.05;;
58864;SDS011;45702;52.982;6.658;2022-08-19T09:45:02;24.38;;;13.32;;
58864;SDS011;45702;52.982;6.658;2022-08-19T09:47:28;18.60;;;12.57;;
58864;SDS011;45702;52.982;6.658;2022-08-19T09:49:54;21.85;;;14.07;;
58864;SDS011;45702;52.982;6.658;2022-08-19T09:52:20;24.65;;;14.57;;
58864;SDS011;45702;52.982;6.658;2022-08-19T09:54:46;30.05;;;17.50;;
58864;SDS011;45702;52.982;6.658;2022-08-19T09:57:12;19.48;;;12.90;;
58864;SDS011;45702;52.982;6.658;2022-08-19T09:59:38;21.30;;;13.98;;
58864;SDS011;45702;52.982;6.658;2022-08-19T10:02:05;19.73;;;12.18;;
58864;SDS011;45702;52.982;6.658;2022-08-19T10:04:30;21.02;;;13.50;;
58864;SDS011;45702;52.982;6.658;2022-08-19T10:07:15;21.92;;;13.38;;
58864;SDS011;45702;52.982;6.658;2022-08-19T10:09:41;27.20;;;16.13;;
58864;SDS011;45702;52.982;6.658;2022-08-19T10:12:07;22.40;;;13.88;;
58864;SDS011;45702;52.982;6.658;2022-08-19T10:14:33;21.95;;;14.13;;
58864;SDS011;45702;52.982;6.658;2022-08-19T10:16:59;21.55;;;14.63;;
58864;SDS011;45702;52.982;6.658;2022-08-19T10:21:57;18.83;;;12.88;;
58864;SDS011;45702;52.982;6.658;2022-08-19T10:24:23;25.02;;;16.08;;
58864;SDS011;45702;52.982;6.658;2022-08-19T10:26:50;22.17;;;14.20;;
58864;SDS011;45702;52.982;6.658;2022-08-19T10:29:16;24.88;;;15.30;;
58864;SDS011;45702;52.982;6.658;2022-08-19T10:31:42;21.27;;;14.73;;
58864;SDS011;45702;52.982;6.658;2022-08-19T10:34:08;21.38;;;13.15;;
58864;SDS011;45702;52.982;6.658;2022-08-19T10:36:35;22.17;;;14.55;;
58864;SDS011;45702;52.982;6.658;2022-08-19T10:39:07;20.25;;;12.80;;
58864;SDS011;45702;52.982;6.658;2022-08-19T10:41:35;13.52;;;10.02;;
58864;SDS011;45702;52.982;6.658;2022-08-19T10:44:03;18.85;;;11.52;;
58864;SDS011;45702;52.982;6.658;2022-08-19T10:46:32;17.38;;;11.35;;
58864;SDS011;45702;52.982;6.658;2022-08-19T10:49:01;19.92;;;13.38;;
58864;SDS011;45702;52.982;6.658;2022-08-19T10:51:28;19.38;;;12.38;;
58864;SDS011;45702;52.982;6.658;2022-08-19T10:54:13;21.48;;;13.23;;
58864;SDS011;45702;52.982;6.658;2022-08-19T10:56:39;20.45;;;11.95;;
58864;SDS011;45702;52.982;6.658;2022-08-19T10:59:27;16.58;;;11.35;;
58864;SDS011;45702;52.982;6.658;2022-08-19T11:01:58;15.00;;;10.50;;
58864;SDS011;45702;52.982;6.658;2022-08-19T11:04:25;17.02;;;11.55;;
58864;SDS011;45702;52.982;6.658;2022-08-19T11:06:51;21.40;;;13.60;;
58864;SDS011;45702;52.982;6.658;2022-08-19T11:09:18;19.33;;;11.93;;
58864;SDS011;45702;52.982;6.658;2022-08-19T11:11:46;15.77;;;11.18;;
58864;SDS011;45702;52.982;6.658;2022-08-19T11:14:14;17.20;;;12.13;;
58864;SDS011;45702;52.982;6.658;2022-08-19T11:16:41;15.75;;;10.57;;
58864;SDS011;45702;52.982;6.658;2022-08-19T11:19:08;16.58;;;11.65;;
58864;SDS011;45702;52.982;6.658;2022-08-19T11:21:42;21.23;;;12.93;;
58864;SDS011;45702;52.982;6.658;2022-08-19T11:24:13;16.10;;;10.73;;
58864;SDS011;45702;52.982;6.658;2022-08-19T11:26:45;17.98;;;10.48;;
58864;SDS011;45702;52.982;6.658;2022-08-19T11:29:13;17.77;;;10.35;;
58864;SDS011;45702;52.982;6.658;2022-08-19T11:31:44;15.50;;;11.05;;
58864;SDS011;45702;52.982;6.658;2022-08-19T11:34:11;19.70;;;13.20;;
58864;SDS011;45702;52.982;6.658;2022-08-19T11:36:44;16.63;;;11.50;;
58864;SDS011;45702;52.982;6.658;2022-08-19T11:39:11;17.70;;;12.38;;
58864;SDS011;45702;52.982;6.658;2022-08-19T11:41:39;16.08;;;11.15;;
58864;SDS011;45702;52.982;6.658;2022-08-19T11:44:05;18.45;;;12.27;;
58864;SDS011;45702;52.982;6.658;2022-08-19T11:46:33;15.73;;;10.20;;
58864;SDS011;45702;52.982;6.658;2022-08-19T11:49:00;12.20;;;9.63;;
58864;SDS011;45702;52.982;6.658;2022-08-19T11:51:27;16.10;;;9.90;;
58864;SDS011;45702;52.982;6.658;2022-08-19T11:53:55;14.27;;;10.30;;
58864;SDS011;45702;52.982;6.658;2022-08-19T11:56:22;16.57;;;11.20;;
58864;SDS011;45702;52.982;6.658;2022-08-19T11:58:49;19.67;;;11.25;;
58864;SDS011;45702;52.982;6.658;2022-08-19T12:01:16;16.10;;;10.50;;
58864;SDS011;45702;52.982;6.658;2022-08-19T12:03:44;15.68;;;11.65;;
58864;SDS011;45702;52.982;6.658;2022-08-19T12:06:12;17.15;;;11.70;;
58864;SDS011;45702;52.982;6.658;2022-08-19T12:08:41;14.43;;;10.40;;
58864;SDS011;45702;52.982;6.658;2022-08-19T12:11:08;15.20;;;10.57;;
58864;SDS011;45702;52.982;6.658;2022-08-19T12:13:35;18.77;;;13.20;;
58864;SDS011;45702;52.982;6.658;2022-08-19T12:16:09;18.85;;;14.82;;
58864;SDS011;45702;52.982;6.658;2022-08-19T12:18:40;19.25;;;14.25;;
58864;SDS011;45702;52.982;6.658;2022-08-19T12:21:08;21.30;;;14.70;;
58864;SDS011;45702;52.982;6.658;2022-08-19T12:23:36;18.87;;;14.37;;
58864;SDS011;45702;52.982;6.658;2022-08-19T12:26:02;22.25;;;16.13;;
58864;SDS011;45702;52.982;6.658;2022-08-19T12:28:29;21.50;;;16.15;;
58864;SDS011;45702;52.982;6.658;2022-08-19T12:30:55;22.83;;;16.48;;
58864;SDS011;45702;52.982;6.658;2022-08-19T12:33:22;19.85;;;14.25;;
58864;SDS011;45702;52.982;6.658;2022-08-19T12:35:50;22.60;;;13.25;;
58864;SDS011;45702;52.982;6.658;2022-08-19T12:38:16;18.35;;;11.73;;
58864;SDS011;45702;52.982;6.658;2022-08-19T12:40:45;16.13;;;10.68;;
58864;SDS011;45702;52.982;6.658;2022-08-19T12:43:11;16.00;;;10.13;;
58864;SDS011;45702;52.982;6.658;2022-08-19T12:45:38;16.30;;;10.02;;
58864;SDS011;45702;52.982;6.658;2022-08-19T12:48:04;16.88;;;11.15;;
58864;SDS011;45702;52.982;6.658;2022-08-19T12:50:30;17.05;;;11.23;;
58864;SDS011;45702;52.982;6.658;2022-08-19T12:52:56;19.02;;;9.85;;
58864;SDS011;45702;52.982;6.658;2022-08-19T12:55:23;14.00;;;9.23;;
58864;SDS011;45702;52.982;6.658;2022-08-19T12:57:50;11.90;;;8.68;;
58864;SDS011;45702;52.982;6.658;2022-08-19T13:00:17;12.13;;;7.60;;
58864;SDS011;45702;52.982;6.658;2022-08-19T13:02:47;17.70;;;10.85;;
58864;SDS011;45702;52.982;6.658;2022-08-19T13:05:17;15.48;;;8.73;;
58864;SDS011;45702;52.982;6.658;2022-08-19T13:07:45;17.90;;;9.80;;
58864;SDS011;45702;52.982;6.658;2022-08-19T13:10:14;19.98;;;11.70;;
58864;SDS011;45702;52.982;6.658;2022-08-19T13:12:41;14.43;;;9.30;;
58864;SDS011;45702;52.982;6.658;2022-08-19T13:15:08;13.60;;;9.77;;
58864;SDS011;45702;52.982;6.658;2022-08-19T13:17:34;12.65;;;9.02;;
58864;SDS011;45702;52.982;6.658;2022-08-19T13:20:01;17.98;;;9.80;;
58864;SDS011;45702;52.982;6.658;2022-08-19T13:22:28;15.70;;;8.45;;
58864;SDS011;45702;52.982;6.658;2022-08-19T13:24:54;14.27;;;10.38;;
58864;SDS011;45702;52.982;6.658;2022-08-19T13:27:20;14.55;;;9.60;;
58864;SDS011;45702;52.982;6.658;2022-08-19T13:29:45;13.98;;;9.88;;
58864;SDS011;45702;52.982;6.658;2022-08-19T13:32:29;13.23;;;9.45;;
58864;SDS011;45702;52.982;6.658;2022-08-19T13:35:14;14.55;;;9.63;;
58864;SDS011;45702;52.982;6.658;2022-08-19T13:40:09;12.82;;;9.02;;
58864;SDS011;45702;52.982;6.658;2022-08-19T13:42:39;15.30;;;10.77;;
58864;SDS011;45702;52.982;6.658;2022-08-19T13:45:05;15.30;;;10.35;;
58864;SDS011;45702;52.982;6.658;2022-08-19T13:47:33;16.92;;;10.80;;
58864;SDS011;45702;52.982;6.658;2022-08-19T13:49:59;16.58;;;10.15;;
58864;SDS011;45702;52.982;6.658;2022-08-19T13:52:28;17.02;;;10.68;;
58864;SDS011;45702;52.982;6.658;2022-08-19T13:54:54;20.55;;;12.43;;
58864;SDS011;45702;52.982;6.658;2022-08-19T13:57:20;28.70;;;16.75;;
58864;SDS011;45702;52.982;6.658;2022-08-19T13:59:45;28.33;;;16.48;;
58864;SDS011;45702;52.982;6.658;2022-08-19T14:02:11;31.58;;;18.15;;
58864;SDS011;45702;52.982;6.658;2022-08-19T14:04:37;33.05;;;19.27;;
58864;SDS011;45702;52.982;6.658;2022-08-19T14:07:03;32.85;;;19.90;;
58864;SDS011;45702;52.982;6.658;2022-08-19T14:09:29;34.92;;;19.30;;
58864;SDS011;45702;52.982;6.658;2022-08-19T14:11:55;33.05;;;18.60;;
58864;SDS011;45702;52.982;6.658;2022-08-19T14:14:21;34.05;;;20.50;;
58864;SDS011;45702;52.982;6.658;2022-08-19T14:16:47;37.65;;;19.17;;
58864;SDS011;45702;52.982;6.658;2022-08-19T14:19:13;37.30;;;20.67;;
58864;SDS011;45702;52.982;6.658;2022-08-19T14:21:39;38.13;;;21.65;;
58864;SDS011;45702;52.982;6.658;2022-08-19T14:24:06;38.10;;;20.70;;
58864;SDS011;45702;52.982;6.658;2022-08-19T14:26:32;38.75;;;20.13;;
58864;SDS011;45702;52.982;6.658;2022-08-19T14:28:58;35.72;;;20.13;;
58864;SDS011;45702;52.982;6.658;2022-08-19T14:31:24;36.78;;;20.80;;
58864;SDS011;45702;52.982;6.658;2022-08-19T14:33:51;28.42;;;18.02;;
58864;SDS011;45702;52.982;6.658;2022-08-19T14:36:18;35.50;;;20.67;;
58864;SDS011;45702;52.982;6.658;2022-08-19T14:38:45;32.42;;;18.27;;
58864;SDS011;45702;52.982;6.658;2022-08-19T14:41:15;29.98;;;18.52;;
58864;SDS011;45702;52.982;6.658;2022-08-19T14:43:48;30.42;;;17.55;;
58864;SDS011;45702;52.982;6.658;2022-08-19T14:46:16;26.80;;;15.88;;
58864;SDS011;45702;52.982;6.658;2022-08-19T14:48:45;26.15;;;16.48;;
58864;SDS011;45702;52.982;6.658;2022-08-19T14:51:11;39.05;;;22.10;;
58864;SDS011;45702;52.982;6.658;2022-08-19T14:53:37;36.55;;;22.48;;
58864;SDS011;45702;52.982;6.658;2022-08-19T14:56:07;38.58;;;20.35;;
58864;SDS011;45702;52.982;6.658;2022-08-19T14:58:37;35.58;;;20.35;;